sensor_id;sensor_type;location;lat;lon;timestamp;P1;durP1;ratioP1;P2;durP2;ratioP2
81150;SDS011;70629;-26.026;27.976;2023-08-06T00:01:48;35.45;;;23.02;;
81150;SDS011;70629;-26.026;27.976;2023-08-06T00:03:24;33.20;;;24.08;;
81150;SDS011;70629;-26.026;27.976;2023-08-06T00:05:00;35.33;;;23.65;;
81150;SDS011;70629;-26.026;27.976;2023-08-06T00:06:35;28.88;;;23.13;;
81150;SDS011;70629;-26.026;27.976;2023-08-06T00:09:44;46.70;;;23.35;;
81150;SDS011;70629;-26.026;27.976;2023-08-06T00:11:19;35.97;;;25.17;;
81150;SDS011;70629;-26.026;27.976;2023-08-06T00:14:28;32.40;;;22.52;;
81150;SDS011;70629;-26.026;27.976;2023-08-06T00:17:44;34.30;;;20.13;;
81150;SDS011;70629;-26.026;27.976;2023-08-06T00:20:54;26.17;;;19.40;;
81150;SDS011;70629;-26.026;27.976;2023-08-06T00:22:29;31.00;;;19.90;;
81150;SDS011;70629;-26.026;27.976;2023-08-06T00:24:04;29.58;;;21.95;;
81150;SDS011;70629;-26.026;27.976;2023-08-06T00:25:39;35.90;;;23.27;;
81150;SDS011;70629;-26.026;27.976;2023-08-06T00:28:48;25.60;;;18.85;;
81150;SDS011;70629;-26.026;27.976;2023-08-06T00:30:23;27.10;;;20.38;;
81150;SDS011;70629;-26.026;27.976;2023-08-06T00:33:33;31.38;;;17.95;;
81150;SDS011;70629;-26.026;27.976;2023-08-06T00:36:42;25.65;;;17.58;;
81150;SDS011;70629;-26.026;27.976;2023-08-06T00:38:17;26.05;;;19.05;;
81150;SDS011;70629;-26.026;27.976;2023-08-06T00:41:26;26.52;;;16.88;;
81150;SDS011;70629;-26.026;27.976;2023-08-06T00:43:02;24.38;;;18.27;;
81150;SDS011;70629;-26.026;27.976;2023-08-06T00:46:11;24.48;;;17.13;;
81150;SDS011;70629;-26.026;27.976;2023-08-06T00:47:47;25.02;;;17.63;;
81150;SDS011;70629;-26.026;27.976;2023-08-06T00:49:22;33.13;;;18.27;;
81150;SDS011;70629;-26.026;27.976;2023-08-06T00:50:57;26.35;;;18.55;;
81150;SDS011;70629;-26.026;27.976;2023-08-06T00:52:33;23.88;;;18.75;;
81150;SDS011;70629;-26.026;27.976;2023-08-06T00:54:08;23.50;;;18.08;;
81150;SDS011;70629;-26.026;27.976;2023-08-06T00:55:44;26.63;;;18.13;;
81150;SDS011;70629;-26.026;27.976;2023-08-06T00:57:19;26.02;;;18.10;;
81150;SDS011;70629;-26.026;27.976;2023-08-06T00:58:59;25.80;;;17.90;;
81150;SDS011;70629;-26.026;27.976;2023-08-06T01:00:34;26.52;;;17.42;;
81150;SDS011;70629;-26.026;27.976;2023-08-06T01:02:10;24.33;;;17.90;;
81150;SDS011;70629;-26.026;27.976;2023-08-06T01:05:20;20.52;;;16.00;;
81150;SDS011;70629;-26.026;27.976;2023-08-06T01:07:06;22.17;;;16.38;;
81150;SDS011;70629;-26.026;27.976;2023-08-06T01:12:51;23.60;;;16.63;;
81150;SDS011;70629;-26.026;27.976;2023-08-06T01:16:35;27.20;;;16.58;;
81150;SDS011;70629;-26.026;27.976;2023-08-06T01:18:11;23.23;;;16.10;;
81150;SDS011;70629;-26.026;27.976;2023-08-06T01:19:47;22.08;;;16.17;;
81150;SDS011;70629;-26.026;27.976;2023-08-06T01:22:56;23.60;;;14.70;;
81150;SDS011;70629;-26.026;27.976;2023-08-06T01:27:52;22.20;;;16.00;;
81150;SDS011;70629;-26.026;27.976;2023-08-06T01:29:35;24.75;;;16.90;;
81150;SDS011;70629;-26.026;27.976;2023-08-06T01:31:32;25.05;;;18.60;;
81150;SDS011;70629;-26.026;27.976;2023-08-06T01:33:14;26.80;;;19.02;;
81150;SDS011;70629;-26.026;27.976;2023-08-06T01:34:54;24.33;;;16.98;;
81150;SDS011;70629;-26.026;27.976;2023-08-06T01:36:29;23.23;;;17.90;;
81150;SDS011;70629;-26.026;27.976;2023-08-06T01:38:05;26.88;;;15.88;;
81150;SDS011;70629;-26.026;27.976;2023-08-06T01:41:17;23.92;;;18.55;;
81150;SDS011;70629;-26.026;27.976;2023-08-06T01:42:52;22.50;;;18.05;;
81150;SDS011;70629;-26.026;27.976;2023-08-06T01:44:27;26.42;;;19.33;;
81150;SDS011;70629;-26.026;27.976;2023-08-06T01:46:02;25.42;;;17.95;;
81150;SDS011;70629;-26.026;27.976;2023-08-06T01:47:37;24.20;;;17.48;;
81150;SDS011;70629;-26.026;27.976;2023-08-06T01:50:47;26.65;;;16.48;;
81150;SDS011;70629;-26.026;27.976;2023-08-06T01:53:56;25.10;;;16.48;;
81150;SDS011;70629;-26.026;27.976;2023-08-06T01:57:05;19.27;;;13.93;;
81150;SDS011;70629;-26.026;27.976;2023-08-06T01:58:40;21.58;;;15.90;;
81150;SDS011;70629;-26.026;27.976;2023-08-06T02:01:50;20.83;;;13.95;;
81150;SDS011;70629;-26.026;27.976;2023-08-06T02:03:25;19.17;;;14.82;;
81150;SDS011;70629;-26.026;27.976;2023-08-06T02:06:35;17.23;;;13.95;;
81150;SDS011;70629;-26.026;27.976;2023-08-06T02:09:44;18.00;;;14.02;;
81150;SDS011;70629;-26.026;27.976;2023-08-06T02:11:19;21.15;;;14.27;;
81150;SDS011;70629;-26.026;27.976;2023-08-06T02:14:28;17.60;;;12.95;;
81150;SDS011;70629;-26.026;27.976;2023-08-06T02:17:38;17.33;;;13.57;;
81150;SDS011;70629;-26.026;27.976;2023-08-06T02:21:05;20.40;;;14.77;;
81150;SDS011;70629;-26.026;27.976;2023-08-06T02:22:40;18.17;;;13.02;;
81150;SDS011;70629;-26.026;27.976;2023-08-06T02:24:15;21.70;;;14.27;;
81150;SDS011;70629;-26.026;27.976;2023-08-06T02:26:10;25.05;;;15.60;;
81150;SDS011;70629;-26.026;27.976;2023-08-06T02:27:45;23.50;;;15.65;;
81150;SDS011;70629;-26.026;27.976;2023-08-06T02:29:19;22.02;;;15.75;;
81150;SDS011;70629;-26.026;27.976;2023-08-06T02:32:29;23.08;;;15.00;;
81150;SDS011;70629;-26.026;27.976;2023-08-06T02:34:05;23.23;;;15.73;;
81150;SDS011;70629;-26.026;27.976;2023-08-06T02:35:41;22.63;;;15.32;;
81150;SDS011;70629;-26.026;27.976;2023-08-06T02:38:50;22.75;;;15.13;;
81150;SDS011;70629;-26.026;27.976;2023-08-06T02:41:59;18.92;;;15.63;;
81150;SDS011;70629;-26.026;27.976;2023-08-06T02:45:08;23.42;;;17.08;;
81150;SDS011;70629;-26.026;27.976;2023-08-06T02:46:44;27.23;;;18.08;;
81150;SDS011;70629;-26.026;27.976;2023-08-06T02:48:19;23.05;;;17.05;;
81150;SDS011;70629;-26.026;27.976;2023-08-06T02:49:54;20.85;;;17.10;;
81150;SDS011;70629;-26.026;27.976;2023-08-06T02:53:04;23.90;;;16.27;;
81150;SDS011;70629;-26.026;27.976;2023-08-06T02:54:39;22.08;;;16.75;;
81150;SDS011;70629;-26.026;27.976;2023-08-06T02:57:48;25.67;;;16.52;;
81150;SDS011;70629;-26.026;27.976;2023-08-06T02:59:23;24.40;;;15.80;;
81150;SDS011;70629;-26.026;27.976;2023-08-06T03:02:34;20.85;;;14.52;;
81150;SDS011;70629;-26.026;27.976;2023-08-06T03:04:09;22.90;;;14.15;;
81150;SDS011;70629;-26.026;27.976;2023-08-06T03:07:25;24.60;;;14.98;;
81150;SDS011;70629;-26.026;27.976;2023-08-06T03:10:34;22.88;;;15.30;;
81150;SDS011;70629;-26.026;27.976;2023-08-06T03:12:09;22.42;;;15.65;;
81150;SDS011;70629;-26.026;27.976;2023-08-06T03:15:19;19.30;;;14.82;;
81150;SDS011;70629;-26.026;27.976;2023-08-06T03:16:53;19.65;;;14.98;;
81150;SDS011;70629;-26.026;27.976;2023-08-06T03:18:29;23.23;;;15.15;;
81150;SDS011;70629;-26.026;27.976;2023-08-06T03:20:04;20.58;;;15.05;;
81150;SDS011;70629;-26.026;27.976;2023-08-06T03:21:39;22.52;;;15.23;;
81150;SDS011;70629;-26.026;27.976;2023-08-06T03:23:14;19.58;;;15.43;;
81150;SDS011;70629;-26.026;27.976;2023-08-06T03:24:52;20.50;;;15.15;;
81150;SDS011;70629;-26.026;27.976;2023-08-06T03:26:27;20.73;;;16.10;;
81150;SDS011;70629;-26.026;27.976;2023-08-06T03:28:02;20.90;;;14.60;;
81150;SDS011;70629;-26.026;27.976;2023-08-06T03:29:37;20.85;;;14.75;;
81150;SDS011;70629;-26.026;27.976;2023-08-06T03:31:12;22.65;;;14.85;;
81150;SDS011;70629;-26.026;27.976;2023-08-06T03:34:22;19.15;;;13.45;;
81150;SDS011;70629;-26.026;27.976;2023-08-06T03:37:31;17.27;;;12.48;;
81150;SDS011;70629;-26.026;27.976;2023-08-06T03:39:06;16.70;;;12.70;;
81150;SDS011;70629;-26.026;27.976;2023-08-06T03:42:16;19.77;;;12.88;;
81150;SDS011;70629;-26.026;27.976;2023-08-06T03:43:50;18.77;;;12.98;;
81150;SDS011;70629;-26.026;27.976;2023-08-06T03:47:00;19.83;;;12.55;;
81150;SDS011;70629;-26.026;27.976;2023-08-06T03:48:35;17.13;;;11.98;;
81150;SDS011;70629;-26.026;27.976;2023-08-06T03:50:09;16.77;;;12.43;;
81150;SDS011;70629;-26.026;27.976;2023-08-06T03:53:20;18.25;;;13.23;;
81150;SDS011;70629;-26.026;27.976;2023-08-06T03:56:29;19.55;;;13.25;;
81150;SDS011;70629;-26.026;27.976;2023-08-06T03:58:04;19.75;;;14.00;;
81150;SDS011;70629;-26.026;27.976;2023-08-06T03:59:39;22.88;;;12.38;;
81150;SDS011;70629;-26.026;27.976;2023-08-06T04:01:15;17.65;;;12.15;;
81150;SDS011;70629;-26.026;27.976;2023-08-06T04:02:51;22.33;;;13.18;;
81150;SDS011;70629;-26.026;27.976;2023-08-06T04:06:02;18.35;;;11.75;;
81150;SDS011;70629;-26.026;27.976;2023-08-06T04:07:37;17.80;;;11.95;;
81150;SDS011;70629;-26.026;27.976;2023-08-06T04:09:12;17.10;;;12.23;;
81150;SDS011;70629;-26.026;27.976;2023-08-06T04:10:53;18.67;;;11.82;;
81150;SDS011;70629;-26.026;27.976;2023-08-06T04:12:28;18.73;;;12.23;;
81150;SDS011;70629;-26.026;27.976;2023-08-06T04:14:03;15.00;;;11.68;;
81150;SDS011;70629;-26.026;27.976;2023-08-06T04:17:12;21.25;;;12.52;;
81150;SDS011;70629;-26.026;27.976;2023-08-06T04:20:22;18.52;;;11.98;;
81150;SDS011;70629;-26.026;27.976;2023-08-06T04:21:57;16.65;;;11.82;;
81150;SDS011;70629;-26.026;27.976;2023-08-06T04:23:32;14.95;;;11.13;;
81150;SDS011;70629;-26.026;27.976;2023-08-06T04:26:42;16.75;;;10.98;;
81150;SDS011;70629;-26.026;27.976;2023-08-06T04:28:17;19.13;;;12.52;;
81150;SDS011;70629;-26.026;27.976;2023-08-06T04:29:53;19.33;;;12.65;;
81150;SDS011;70629;-26.026;27.976;2023-08-06T04:33:03;19.20;;;12.27;;
81150;SDS011;70629;-26.026;27.976;2023-08-06T04:34:38;18.33;;;12.23;;
81150;SDS011;70629;-26.026;27.976;2023-08-06T04:36:12;18.55;;;12.10;;
81150;SDS011;70629;-26.026;27.976;2023-08-06T04:37:47;16.77;;;11.52;;
81150;SDS011;70629;-26.026;27.976;2023-08-06T04:40:57;17.40;;;10.52;;
81150;SDS011;70629;-26.026;27.976;2023-08-06T04:42:32;14.88;;;10.35;;
81150;SDS011;70629;-26.026;27.976;2023-08-06T04:44:07;17.73;;;10.80;;
81150;SDS011;70629;-26.026;27.976;2023-08-06T04:45:51;14.88;;;11.00;;
81150;SDS011;70629;-26.026;27.976;2023-08-06T04:47:28;18.60;;;13.23;;
81150;SDS011;70629;-26.026;27.976;2023-08-06T04:49:03;15.05;;;11.20;;
81150;SDS011;70629;-26.026;27.976;2023-08-06T04:52:12;19.80;;;11.25;;
81150;SDS011;70629;-26.026;27.976;2023-08-06T04:53:47;17.58;;;11.55;;
81150;SDS011;70629;-26.026;27.976;2023-08-06T04:55:22;19.42;;;11.95;;
81150;SDS011;70629;-26.026;27.976;2023-08-06T04:56:57;22.20;;;12.57;;
81150;SDS011;70629;-26.026;27.976;2023-08-06T05:00:07;16.15;;;9.88;;
81150;SDS011;70629;-26.026;27.976;2023-08-06T05:01:42;20.70;;;11.38;;
81150;SDS011;70629;-26.026;27.976;2023-08-06T05:04:51;13.07;;;9.90;;
81150;SDS011;70629;-26.026;27.976;2023-08-06T05:06:26;13.82;;;11.40;;
81150;SDS011;70629;-26.026;27.976;2023-08-06T05:08:01;17.15;;;11.40;;
81150;SDS011;70629;-26.026;27.976;2023-08-06T05:11:12;11.43;;;8.73;;
81150;SDS011;70629;-26.026;27.976;2023-08-06T05:12:47;17.92;;;10.70;;
81150;SDS011;70629;-26.026;27.976;2023-08-06T05:15:57;13.98;;;8.95;;
81150;SDS011;70629;-26.026;27.976;2023-08-06T05:17:32;18.52;;;10.65;;
81150;SDS011;70629;-26.026;27.976;2023-08-06T05:19:08;17.20;;;9.57;;
81150;SDS011;70629;-26.026;27.976;2023-08-06T05:20:43;14.32;;;10.20;;
81150;SDS011;70629;-26.026;27.976;2023-08-06T05:22:17;15.32;;;10.20;;
81150;SDS011;70629;-26.026;27.976;2023-08-06T05:25:27;14.85;;;11.40;;
81150;SDS011;70629;-26.026;27.976;2023-08-06T05:27:02;23.08;;;13.02;;
81150;SDS011;70629;-26.026;27.976;2023-08-06T05:28:37;22.08;;;12.30;;
81150;SDS011;70629;-26.026;27.976;2023-08-06T05:30:12;21.25;;;13.23;;
81150;SDS011;70629;-26.026;27.976;2023-08-06T05:33:21;18.85;;;12.43;;
81150;SDS011;70629;-26.026;27.976;2023-08-06T05:34:56;21.50;;;13.82;;
81150;SDS011;70629;-26.026;27.976;2023-08-06T05:36:31;18.75;;;13.18;;
81150;SDS011;70629;-26.026;27.976;2023-08-06T05:38:06;17.95;;;12.32;;
81150;SDS011;70629;-26.026;27.976;2023-08-06T05:41:15;18.30;;;12.15;;
81150;SDS011;70629;-26.026;27.976;2023-08-06T05:44:26;20.90;;;11.27;;
81150;SDS011;70629;-26.026;27.976;2023-08-06T05:46:00;18.10;;;11.88;;
81150;SDS011;70629;-26.026;27.976;2023-08-06T05:49:10;18.10;;;11.25;;
81150;SDS011;70629;-26.026;27.976;2023-08-06T05:50:47;13.98;;;10.63;;
81150;SDS011;70629;-26.026;27.976;2023-08-06T05:52:22;19.02;;;11.68;;
81150;SDS011;70629;-26.026;27.976;2023-08-06T05:53:57;19.27;;;12.65;;
81150;SDS011;70629;-26.026;27.976;2023-08-06T05:55:32;17.88;;;11.73;;
81150;SDS011;70629;-26.026;27.976;2023-08-06T05:57:07;19.40;;;12.25;;
81150;SDS011;70629;-26.026;27.976;2023-08-06T06:00:17;14.23;;;10.90;;
81150;SDS011;70629;-26.026;27.976;2023-08-06T06:01:52;16.85;;;11.38;;
81150;SDS011;70629;-26.026;27.976;2023-08-06T06:03:28;15.93;;;11.07;;
81150;SDS011;70629;-26.026;27.976;2023-08-06T06:06:37;13.82;;;10.45;;
81150;SDS011;70629;-26.026;27.976;2023-08-06T06:08:12;19.45;;;12.45;;
81150;SDS011;70629;-26.026;27.976;2023-08-06T06:09:47;19.25;;;11.18;;
81150;SDS011;70629;-26.026;27.976;2023-08-06T06:11:22;18.85;;;12.55;;
81150;SDS011;70629;-26.026;27.976;2023-08-06T06:14:31;19.92;;;11.48;;
81150;SDS011;70629;-26.026;27.976;2023-08-06T06:16:06;19.58;;;11.43;;
81150;SDS011;70629;-26.026;27.976;2023-08-06T06:17:41;16.38;;;12.30;;
81150;SDS011;70629;-26.026;27.976;2023-08-06T06:19:16;16.10;;;11.57;;
81150;SDS011;70629;-26.026;27.976;2023-08-06T06:22:25;15.95;;;10.90;;
81150;SDS011;70629;-26.026;27.976;2023-08-06T06:24:00;17.38;;;11.48;;
81150;SDS011;70629;-26.026;27.976;2023-08-06T06:27:09;16.52;;;11.27;;
81150;SDS011;70629;-26.026;27.976;2023-08-06T06:28:45;20.88;;;12.65;;
81150;SDS011;70629;-26.026;27.976;2023-08-06T06:31:54;13.82;;;10.52;;
81150;SDS011;70629;-26.026;27.976;2023-08-06T06:33:29;18.92;;;12.13;;
81150;SDS011;70629;-26.026;27.976;2023-08-06T06:35:04;17.05;;;11.38;;
81150;SDS011;70629;-26.026;27.976;2023-08-06T06:36:40;17.25;;;11.60;;
81150;SDS011;70629;-26.026;27.976;2023-08-06T06:39:49;16.35;;;12.32;;
81150;SDS011;70629;-26.026;27.976;2023-08-06T06:43:00;60.25;;;28.88;;
81150;SDS011;70629;-26.026;27.976;2023-08-06T06:46:09;22.90;;;13.55;;
81150;SDS011;70629;-26.026;27.976;2023-08-06T06:47:44;19.05;;;12.95;;
81150;SDS011;70629;-26.026;27.976;2023-08-06T06:49:19;19.52;;;12.52;;
81150;SDS011;70629;-26.026;27.976;2023-08-06T06:52:29;19.35;;;11.02;;
81150;SDS011;70629;-26.026;27.976;2023-08-06T06:55:39;15.57;;;10.90;;
81150;SDS011;70629;-26.026;27.976;2023-08-06T06:58:48;17.20;;;11.23;;
81150;SDS011;70629;-26.026;27.976;2023-08-06T07:00:23;17.38;;;11.98;;
81150;SDS011;70629;-26.026;27.976;2023-08-06T07:03:32;16.52;;;10.75;;
81150;SDS011;70629;-26.026;27.976;2023-08-06T07:05:07;19.92;;;12.32;;
81150;SDS011;70629;-26.026;27.976;2023-08-06T07:06:43;30.52;;;15.00;;
81150;SDS011;70629;-26.026;27.976;2023-08-06T07:09:53;17.35;;;11.20;;
81150;SDS011;70629;-26.026;27.976;2023-08-06T07:11:28;16.40;;;11.35;;
81150;SDS011;70629;-26.026;27.976;2023-08-06T07:13:03;15.20;;;10.40;;
81150;SDS011;70629;-26.026;27.976;2023-08-06T07:16:13;13.75;;;7.75;;
81150;SDS011;70629;-26.026;27.976;2023-08-06T07:19:22;7.68;;;5.68;;
81150;SDS011;70629;-26.026;27.976;2023-08-06T07:20:57;6.38;;;4.32;;
81150;SDS011;70629;-26.026;27.976;2023-08-06T07:22:33;7.47;;;4.07;;
81150;SDS011;70629;-26.026;27.976;2023-08-06T07:24:07;8.75;;;5.15;;
81150;SDS011;70629;-26.026;27.976;2023-08-06T07:25:43;7.97;;;4.65;;
81150;SDS011;70629;-26.026;27.976;2023-08-06T07:27:17;9.82;;;5.85;;
81150;SDS011;70629;-26.026;27.976;2023-08-06T07:30:27;8.43;;;4.10;;
81150;SDS011;70629;-26.026;27.976;2023-08-06T07:32:02;4.38;;;2.67;;
81150;SDS011;70629;-26.026;27.976;2023-08-06T07:33:37;7.30;;;3.92;;
81150;SDS011;70629;-26.026;27.976;2023-08-06T07:35:12;9.68;;;5.60;;
81150;SDS011;70629;-26.026;27.976;2023-08-06T07:36:48;10.30;;;5.65;;
81150;SDS011;70629;-26.026;27.976;2023-08-06T07:39:58;11.68;;;6.15;;
81150;SDS011;70629;-26.026;27.976;2023-08-06T07:41:33;8.95;;;6.28;;
81150;SDS011;70629;-26.026;27.976;2023-08-06T07:43:09;12.63;;;7.10;;
81150;SDS011;70629;-26.026;27.976;2023-08-06T07:44:44;13.35;;;7.25;;
81150;SDS011;70629;-26.026;27.976;2023-08-06T07:47:53;10.30;;;6.30;;
81150;SDS011;70629;-26.026;27.976;2023-08-06T07:49:28;9.23;;;3.90;;
81150;SDS011;70629;-26.026;27.976;2023-08-06T07:51:03;7.78;;;4.93;;
81150;SDS011;70629;-26.026;27.976;2023-08-06T07:52:38;8.60;;;5.15;;
81150;SDS011;70629;-26.026;27.976;2023-08-06T07:54:13;8.70;;;4.15;;
81150;SDS011;70629;-26.026;27.976;2023-08-06T07:57:25;8.13;;;4.13;;
81150;SDS011;70629;-26.026;27.976;2023-08-06T08:00:35;10.38;;;3.75;;
81150;SDS011;70629;-26.026;27.976;2023-08-06T08:03:44;8.73;;;3.65;;
81150;SDS011;70629;-26.026;27.976;2023-08-06T08:05:19;9.25;;;3.30;;
81150;SDS011;70629;-26.026;27.976;2023-08-06T08:08:29;6.50;;;3.00;;
81150;SDS011;70629;-26.026;27.976;2023-08-06T08:10:04;5.70;;;3.10;;
81150;SDS011;70629;-26.026;27.976;2023-08-06T08:11:40;11.38;;;3.47;;
81150;SDS011;70629;-26.026;27.976;2023-08-06T08:13:15;6.88;;;3.38;;
81150;SDS011;70629;-26.026;27.976;2023-08-06T08:14:50;7.85;;;3.92;;
81150;SDS011;70629;-26.026;27.976;2023-08-06T08:16:26;5.38;;;3.53;;
81150;SDS011;70629;-26.026;27.976;2023-08-06T08:18:01;8.05;;;4.68;;
81150;SDS011;70629;-26.026;27.976;2023-08-06T08:19:36;10.23;;;5.18;;
81150;SDS011;70629;-26.026;27.976;2023-08-06T08:21:11;6.53;;;4.13;;
81150;SDS011;70629;-26.026;27.976;2023-08-06T08:22:46;6.93;;;4.40;;
81150;SDS011;70629;-26.026;27.976;2023-08-06T08:24:21;6.78;;;4.45;;
81150;SDS011;70629;-26.026;27.976;2023-08-06T08:26:00;7.70;;;4.78;;
81150;SDS011;70629;-26.026;27.976;2023-08-06T08:27:36;6.90;;;4.07;;
81150;SDS011;70629;-26.026;27.976;2023-08-06T08:29:11;6.80;;;4.38;;
81150;SDS011;70629;-26.026;27.976;2023-08-06T08:30:46;7.93;;;4.70;;
81150;SDS011;70629;-26.026;27.976;2023-08-06T08:32:20;8.10;;;4.28;;
81150;SDS011;70629;-26.026;27.976;2023-08-06T08:33:55;5.65;;;3.80;;
81150;SDS011;70629;-26.026;27.976;2023-08-06T08:35:32;9.15;;;5.03;;
81150;SDS011;70629;-26.026;27.976;2023-08-06T08:37:07;7.78;;;5.32;;
81150;SDS011;70629;-26.026;27.976;2023-08-06T08:38:42;8.82;;;5.05;;
81150;SDS011;70629;-26.026;27.976;2023-08-06T08:40:17;8.15;;;5.22;;
81150;SDS011;70629;-26.026;27.976;2023-08-06T08:41:53;7.80;;;5.13;;
81150;SDS011;70629;-26.026;27.976;2023-08-06T08:43:28;10.77;;;5.93;;
81150;SDS011;70629;-26.026;27.976;2023-08-06T08:45:04;7.68;;;4.82;;
81150;SDS011;70629;-26.026;27.976;2023-08-06T08:46:45;9.30;;;5.47;;
81150;SDS011;70629;-26.026;27.976;2023-08-06T08:48:22;12.98;;;5.53;;
81150;SDS011;70629;-26.026;27.976;2023-08-06T08:49:57;7.93;;;4.97;;
81150;SDS011;70629;-26.026;27.976;2023-08-06T08:51:34;7.22;;;4.78;;
81150;SDS011;70629;-26.026;27.976;2023-08-06T08:53:09;10.45;;;5.07;;
81150;SDS011;70629;-26.026;27.976;2023-08-06T08:54:45;11.93;;;5.93;;
81150;SDS011;70629;-26.026;27.976;2023-08-06T08:56:25;11.35;;;4.82;;
81150;SDS011;70629;-26.026;27.976;2023-08-06T08:58:00;7.68;;;5.38;;
81150;SDS011;70629;-26.026;27.976;2023-08-06T08:59:35;8.38;;;4.63;;
81150;SDS011;70629;-26.026;27.976;2023-08-06T09:01:10;15.77;;;5.25;;
81150;SDS011;70629;-26.026;27.976;2023-08-06T09:02:46;9.27;;;5.03;;
81150;SDS011;70629;-26.026;27.976;2023-08-06T09:04:21;8.30;;;4.80;;
81150;SDS011;70629;-26.026;27.976;2023-08-06T09:05:57;7.82;;;4.43;;
81150;SDS011;70629;-26.026;27.976;2023-08-06T09:07:39;9.52;;;5.00;;
81150;SDS011;70629;-26.026;27.976;2023-08-06T09:09:22;10.15;;;5.22;;
81150;SDS011;70629;-26.026;27.976;2023-08-06T09:11:10;7.95;;;5.15;;
81150;SDS011;70629;-26.026;27.976;2023-08-06T09:12:46;9.85;;;5.93;;
81150;SDS011;70629;-26.026;27.976;2023-08-06T09:14:22;8.55;;;5.18;;
81150;SDS011;70629;-26.026;27.976;2023-08-06T09:15:57;9.95;;;5.90;;
81150;SDS011;70629;-26.026;27.976;2023-08-06T09:17:32;11.65;;;6.80;;
81150;SDS011;70629;-26.026;27.976;2023-08-06T09:19:10;10.60;;;5.88;;
81150;SDS011;70629;-26.026;27.976;2023-08-06T09:20:54;12.93;;;7.18;;
81150;SDS011;70629;-26.026;27.976;2023-08-06T09:22:36;12.63;;;7.50;;
81150;SDS011;70629;-26.026;27.976;2023-08-06T09:24:11;10.45;;;6.10;;
81150;SDS011;70629;-26.026;27.976;2023-08-06T09:25:47;9.50;;;6.18;;
81150;SDS011;70629;-26.026;27.976;2023-08-06T09:27:22;11.35;;;6.82;;
81150;SDS011;70629;-26.026;27.976;2023-08-06T09:28:57;10.05;;;6.30;;
81150;SDS011;70629;-26.026;27.976;2023-08-06T09:30:36;11.15;;;6.30;;
81150;SDS011;70629;-26.026;27.976;2023-08-06T09:32:14;14.23;;;6.40;;
81150;SDS011;70629;-26.026;27.976;2023-08-06T09:33:49;10.13;;;6.47;;
81150;SDS011;70629;-26.026;27.976;2023-08-06T09:35:24;12.27;;;7.00;;
81150;SDS011;70629;-26.026;27.976;2023-08-06T09:36:59;12.50;;;6.60;;
81150;SDS011;70629;-26.026;27.976;2023-08-06T09:38:37;9.68;;;6.68;;
81150;SDS011;70629;-26.026;27.976;2023-08-06T09:40:33;10.45;;;6.22;;
81150;SDS011;70629;-26.026;27.976;2023-08-06T09:42:08;10.82;;;6.85;;
81150;SDS011;70629;-26.026;27.976;2023-08-06T09:43:43;12.23;;;6.72;;
81150;SDS011;70629;-26.026;27.976;2023-08-06T09:45:18;11.35;;;6.47;;
81150;SDS011;70629;-26.026;27.976;2023-08-06T09:48:17;8.95;;;7.72;;
81150;SDS011;70629;-26.026;27.976;2023-08-06T09:49:52;10.52;;;6.70;;
81150;SDS011;70629;-26.026;27.976;2023-08-06T09:51:27;9.82;;;7.53;;
81150;SDS011;70629;-26.026;27.976;2023-08-06T09:53:03;9.82;;;7.85;;
81150;SDS011;70629;-26.026;27.976;2023-08-06T09:54:39;11.85;;;7.47;;
81150;SDS011;70629;-26.026;27.976;2023-08-06T09:56:14;10.43;;;6.75;;
81150;SDS011;70629;-26.026;27.976;2023-08-06T09:57:51;10.40;;;7.38;;
81150;SDS011;70629;-26.026;27.976;2023-08-06T09:59:27;10.77;;;7.30;;
81150;SDS011;70629;-26.026;27.976;2023-08-06T10:01:06;13.10;;;6.75;;
81150;SDS011;70629;-26.026;27.976;2023-08-06T10:02:42;9.88;;;6.68;;
81150;SDS011;70629;-26.026;27.976;2023-08-06T10:04:18;9.75;;;7.78;;
81150;SDS011;70629;-26.026;27.976;2023-08-06T10:05:58;11.55;;;8.43;;
81150;SDS011;70629;-26.026;27.976;2023-08-06T10:07:36;11.20;;;8.77;;
81150;SDS011;70629;-26.026;27.976;2023-08-06T10:09:15;10.43;;;6.30;;
81150;SDS011;70629;-26.026;27.976;2023-08-06T10:10:49;11.30;;;6.68;;
81150;SDS011;70629;-26.026;27.976;2023-08-06T10:12:28;11.80;;;7.80;;
81150;SDS011;70629;-26.026;27.976;2023-08-06T10:14:07;11.68;;;6.88;;
81150;SDS011;70629;-26.026;27.976;2023-08-06T10:15:47;11.35;;;7.45;;
81150;SDS011;70629;-26.026;27.976;2023-08-06T10:17:23;8.68;;;6.32;;
81150;SDS011;70629;-26.026;27.976;2023-08-06T10:19:17;8.90;;;6.10;;
81150;SDS011;70629;-26.026;27.976;2023-08-06T10:20:54;9.23;;;6.22;;
81150;SDS011;70629;-26.026;27.976;2023-08-06T10:22:29;10.02;;;7.00;;
81150;SDS011;70629;-26.026;27.976;2023-08-06T10:24:07;48.38;;;27.80;;
81150;SDS011;70629;-26.026;27.976;2023-08-06T10:25:45;10.60;;;8.13;;
81150;SDS011;70629;-26.026;27.976;2023-08-06T10:27:34;9.52;;;6.35;;
81150;SDS011;70629;-26.026;27.976;2023-08-06T10:29:37;10.73;;;6.72;;
81150;SDS011;70629;-26.026;27.976;2023-08-06T10:31:13;11.60;;;5.97;;
81150;SDS011;70629;-26.026;27.976;2023-08-06T10:32:49;9.30;;;6.68;;
81150;SDS011;70629;-26.026;27.976;2023-08-06T10:34:25;7.95;;;6.20;;
81150;SDS011;70629;-26.026;27.976;2023-08-06T10:36:19;11.13;;;6.85;;
81150;SDS011;70629;-26.026;27.976;2023-08-06T10:37:55;7.88;;;6.65;;
81150;SDS011;70629;-26.026;27.976;2023-08-06T10:39:33;7.75;;;6.75;;
81150;SDS011;70629;-26.026;27.976;2023-08-06T10:41:08;9.27;;;6.68;;
81150;SDS011;70629;-26.026;27.976;2023-08-06T10:42:51;11.45;;;6.53;;
81150;SDS011;70629;-26.026;27.976;2023-08-06T10:44:30;12.55;;;7.75;;
81150;SDS011;70629;-26.026;27.976;2023-08-06T10:46:11;9.23;;;6.80;;
81150;SDS011;70629;-26.026;27.976;2023-08-06T10:47:57;11.85;;;7.63;;
81150;SDS011;70629;-26.026;27.976;2023-08-06T10:49:34;14.73;;;7.63;;
81150;SDS011;70629;-26.026;27.976;2023-08-06T10:51:12;13.55;;;7.75;;
81150;SDS011;70629;-26.026;27.976;2023-08-06T10:52:48;11.25;;;7.40;;
81150;SDS011;70629;-26.026;27.976;2023-08-06T10:54:27;10.85;;;7.57;;
81150;SDS011;70629;-26.026;27.976;2023-08-06T10:56:11;8.35;;;6.32;;
81150;SDS011;70629;-26.026;27.976;2023-08-06T10:57:50;7.93;;;6.43;;
81150;SDS011;70629;-26.026;27.976;2023-08-06T10:59:26;12.73;;;7.78;;
81150;SDS011;70629;-26.026;27.976;2023-08-06T11:01:01;10.40;;;7.63;;
81150;SDS011;70629;-26.026;27.976;2023-08-06T11:02:36;11.95;;;7.20;;
81150;SDS011;70629;-26.026;27.976;2023-08-06T11:04:12;12.45;;;7.30;;
81150;SDS011;70629;-26.026;27.976;2023-08-06T11:05:51;9.75;;;6.72;;
81150;SDS011;70629;-26.026;27.976;2023-08-06T11:07:29;9.50;;;7.22;;
81150;SDS011;70629;-26.026;27.976;2023-08-06T11:09:05;15.25;;;8.18;;
81150;SDS011;70629;-26.026;27.976;2023-08-06T11:10:40;14.32;;;7.65;;
81150;SDS011;70629;-26.026;27.976;2023-08-06T11:12:30;12.45;;;8.00;;
81150;SDS011;70629;-26.026;27.976;2023-08-06T11:14:06;11.98;;;8.20;;
81150;SDS011;70629;-26.026;27.976;2023-08-06T11:15:49;10.07;;;7.70;;
81150;SDS011;70629;-26.026;27.976;2023-08-06T11:17:24;10.88;;;8.40;;
81150;SDS011;70629;-26.026;27.976;2023-08-06T11:18:59;12.70;;;8.10;;
81150;SDS011;70629;-26.026;27.976;2023-08-06T11:20:34;12.80;;;7.55;;
81150;SDS011;70629;-26.026;27.976;2023-08-06T11:22:10;11.05;;;8.30;;
81150;SDS011;70629;-26.026;27.976;2023-08-06T11:23:45;9.88;;;7.88;;